Time;durP1;ratioP1;P1;durP2;ratioP2;P2;SDS_P1;SDS_P2;PMS_P1;PMS_P2;Temp;Humidity;BMP_temperature;BMP_pressure;BME280_temperature;BME280_humidity;BME280_pressure;Samples;Min_cycle;Max_cycle;Signal;HPM_P1;HPM_P2
2021/04/08 11:36:37;;;;;;;7.15;1.90;;;;;;;6.88;48.93;101299.22;5018349;28;20045;-81
2021/04/08 11:39:10;;;;;;;7.82;1.60;;;;;;;6.48;49.67;101303.09;5019811;28;20057;-80
2021/04/08 11:41:37;;;;;;;7.07;1.88;;;;;;;6.70;48.83;101300.69;5004767;28;20084;-79
2021/04/08 11:44:04;;;;;;;8.32;1.50;;;;;;;6.93;48.22;101306.94;4995913;28;20046;-80
2021/04/08 11:46:36;;;;;;;6.68;1.83;;;;;;;7.08;47.43;101303.81;4998183;28;20042;-79
2021/04/08 11:49:18;;;;;;;11.68;1.80;;;;;;;7.11;48.22;101298.47;5022603;28;20215;-79
2021/04/08 11:51:45;;;;;;;11.40;2.05;;;;;;;7.35;49.16;101308.09;4993130;28;20034;-79
2021/04/08 11:54:16;;;;;;;7.53;1.83;;;;;;;6.96;49.65;101307.69;5028629;28;20070;-81
2021/04/08 11:56:44;;;;;;;4.90;1.83;;;;;;;6.72;50.06;101303.25;4990009;28;20049;-80
2021/04/08 11:59:18;;;;;;;11.27;2.28;;;;;;;7.00;50.10;101313.69;5001331;28;20117;-78
2021/04/08 12:01:47;;;;;;;7.38;1.38;;;;;;;7.19;48.80;101311.31;5020463;28;20113;-80
2021/04/08 12:04:25;;;;;;;11.98;1.80;;;;;;;7.56;48.46;101310.88;5018942;28;20063;-81
2021/04/08 12:06:59;;;;;;;7.38;1.67;;;;;;;7.75;47.00;101311.09;5014030;28;20069;-79
2021/04/08 12:09:43;;;;;;;5.05;1.42;;;;;;;7.58;46.51;101312.53;5011999;28;20050;-79
2021/04/08 12:12:11;;;;;;;3.00;1.15;;;;;;;7.50;46.66;101316.34;5014719;28;20088;-80
2021/04/08 12:14:57;;;;;;;6.55;1.65;;;;;;;7.31;46.27;101310.88;5012986;28;20053;-78
2021/04/08 12:17:25;;;;;;;9.93;1.63;;;;;;;7.55;45.04;101320.50;5014716;28;20105;-79
2021/04/08 12:19:52;;;;;;;10.68;2.20;;;;;;;7.55;45.47;101314.41;5018057;28;20054;-81
2021/04/08 12:22:22;;;;;;;4.55;1.40;;;;;;;7.16;45.57;101314.91;5016327;28;20073;-79
2021/04/08 12:25:11;;;;;;;8.20;1.98;;;;;;;7.18;46.59;101318.31;5000993;28;20073;-80
2021/04/08 12:27:39;;;;;;;4.07;1.50;;;;;;;7.20;47.02;101319.09;5002345;28;20069;-81
2021/04/08 12:30:09;;;;;;;6.10;1.67;;;;;;;7.82;45.16;101320.44;4997178;28;20486;-81
2021/04/08 12:32:36;;;;;;;4.63;1.52;;;;;;;7.96;42.58;101326.00;4996802;28;20113;-80
2021/04/08 12:35:06;;;;;;;9.55;2.05;;;;;;;8.12;43.09;101321.06;4991090;28;20046;-80
2021/04/08 12:37:33;;;;;;;6.03;1.40;;;;;;;8.03;44.25;101332.75;5010464;28;20046;-80
2021/04/08 12:40:06;;;;;;;10.85;1.40;;;;;;;7.93;44.14;101323.53;5018763;28;20042;-81
2021/04/08 12:42:33;;;;;;;10.07;1.55;;;;;;;7.46;44.33;101333.94;4990643;28;20054;-78
2021/04/08 12:45:00;;;;;;;9.68;1.58;;;;;;;7.01;46.46;101345.03;4985510;28;20045;-79
2021/04/08 12:47:27;;;;;;;5.63;1.27;;;;;;;6.88;46.93;101346.34;5021890;28;20057;-80
2021/04/08 12:49:54;;;;;;;7.32;1.50;;;;;;;6.72;47.38;101347.75;5020439;28;20101;-81
2021/04/08 12:52:21;;;;;;;9.68;1.90;;;;;;;6.94;46.88;101343.53;5024648;28;20049;-78
2021/04/08 12:54:48;;;;;;;7.05;1.92;;;;;;;6.78;48.20;101343.16;5009005;28;20042;-78
2021/04/08 12:57:15;;;;;;;9.07;1.80;;;;;;;7.23;47.34;101341.72;5021374;28;20076;-78
2021/04/08 12:59:42;;;;;;;7.47;1.58;;;;;;;7.09;46.66;101343.03;5027684;28;20061;-81
2021/04/08 13:02:09;;;;;;;5.85;1.25;;;;;;;7.45;44.34;101350.56;5023859;28;20522;-81
2021/04/08 13:04:36;;;;;;;5.47;1.23;;;;;;;7.78;42.52;101345.03;5013421;28;21020;-80
2021/04/08 13:07:03;;;;;;;12.63;1.20;;;;;;;7.98;42.07;101345.19;5022560;28;20073;-79
2021/04/08 13:09:30;;;;;;;5.93;1.05;;;;;;;7.72;41.87;101345.25;5013115;28;20121;-79
2021/04/08 13:11:58;;;;;;;7.90;1.10;;;;;;;7.32;42.44;101344.88;4994883;28;20038;-79
2021/04/08 13:14:25;;;;;;;5.97;1.60;;;;;;;7.33;43.74;101346.56;4997305;28;20050;-79
2021/04/08 13:16:52;;;;;;;7.53;1.83;;;;;;;7.92;43.26;101348.00;5030594;28;20064;-78
2021/04/08 13:19:19;;;;;;;5.88;1.40;;;;;;;7.97;43.80;101350.47;5025916;28;20034;-80
2021/04/08 13:21:46;;;;;;;7.85;1.50;;;;;;;7.34;46.43;101350.94;5034252;28;20056;-79
2021/04/08 13:24:12;;;;;;;8.88;1.50;;;;;;;8.02;45.58;101344.16;5024797;28;20070;-79
2021/04/08 13:26:40;;;;;;;10.35;1.83;;;;;;;7.23;47.97;101353.03;5007586;28;20057;-80
2021/04/08 13:29:06;;;;;;;3.85;1.30;;;;;;;7.28;48.08;101353.75;4998546;28;20042;-79
2021/04/08 13:31:34;;;;;;;12.73;1.60;;;;;;;7.46;47.75;101356.66;5019231;28;20054;-81
2021/04/08 13:34:01;;;;;;;10.02;1.58;;;;;;;7.85;47.55;101352.63;5023366;28;20145;-81
2021/04/08 13:36:28;;;;;;;6.35;1.70;;;;;;;7.39;49.04;101357.78;4994490;28;20088;-79
2021/04/08 13:38:54;;;;;;;7.00;1.52;;;;;;;7.42;48.89;101357.66;5004149;28;20065;-80
2021/04/08 13:41:21;;;;;;;13.70;2.08;;;;;;;7.43;48.93;101359.38;5010519;28;20050;-78
2021/04/08 13:43:48;;;;;;;12.02;1.83;;;;;;;7.59;49.63;101361.41;5016699;28;20080;-82
2021/04/08 13:46:15;;;;;;;7.85;1.58;;;;;;;7.46;49.63;101367.13;5007423;28;20417;-79
2021/04/08 13:48:42;;;;;;;7.82;1.88;;;;;;;7.60;49.02;101363.13;5017180;28;20037;-80
2021/04/08 13:51:09;;;;;;;10.45;1.92;;;;;;;7.61;50.23;101358.75;5019890;28;20080;-79
2021/04/08 13:53:35;;;;;;;7.07;1.58;;;;;;;6.98;51.93;101367.84;4997765;28;20329;-78
2021/04/08 13:56:02;;;;;;;12.13;1.95;;;;;;;6.62;53.27;101370.72;5009856;28;20074;-80
2021/04/08 13:58:29;;;;;;;12.18;1.50;;;;;;;6.75;52.91;101379.03;5016002;28;20050;-79
2021/04/08 14:00:56;;;;;;;12.02;1.83;;;;;;;6.99;52.88;101374.81;5018765;28;20445;-79
2021/04/08 14:03:28;;;;;;;11.75;2.08;;;;;;;6.92;53.97;101381.97;5017157;28;20273;-80
2021/04/08 14:05:55;;;;;;;11.05;1.52;;;;;;;6.70;54.86;101379.16;5019169;28;20058;-80
2021/04/08 14:08:23;;;;;;;8.18;1.55;;;;;;;7.14;54.60;101376.91;4988036;28;20092;-81
2021/04/08 14:10:50;;;;;;;7.90;1.58;;;;;;;7.13;54.46;101374.34;4987885;28;20041;-81
2021/04/08 14:13:17;;;;;;;10.10;1.70;;;;;;;7.58;53.40;101374.56;5004156;28;20072;-80
2021/04/08 14:15:44;;;;;;;8.00;1.40;;;;;;;7.95;52.71;101371.50;5022870;28;20062;-79
2021/04/08 14:18:11;;;;;;;9.18;1.30;;;;;;;8.10;52.13;101372.69;5026734;28;20065;-80
2021/04/08 14:20:39;;;;;;;14.07;2.42;;;;;;;7.86;53.92;101371.84;5030197;28;20049;-80
2021/04/08 14:23:06;;;;;;;9.45;1.73;;;;;;;8.18;52.24;101375.06;4997163;28;20073;-81
2021/04/08 14:25:32;;;;;;;10.90;1.75;;;;;;;8.09;52.53;101366.59;4997997;28;20141;-79
2021/04/08 14:27:59;;;;;;;12.63;1.80;;;;;;;7.92;52.98;101376.84;5026863;28;20075;-78
2021/04/08 14:30:26;;;;;;;9.70;2.15;;;;;;;7.93;52.79;101373.34;5024787;28;20060;-81
2021/04/08 14:32:53;;;;;;;6.93;1.63;;;;;;;7.78;53.23;101366.00;5009306;28;20471;-80
2021/04/08 14:35:20;;;;;;;7.18;1.45;;;;;;;7.54;53.52;101368.56;5026113;28;20077;-79
2021/04/08 14:37:47;;;;;;;8.65;2.00;;;;;;;7.49;55.75;101367.03;5009780;28;20069;-79
2021/04/08 14:40:14;;;;;;;8.38;1.98;;;;;;;7.24;57.14;101364.38;5019280;28;20069;-79
2021/04/08 14:42:40;;;;;;;8.02;1.92;;;;;;;7.25;57.78;101361.72;5024772;28;20065;-78
2021/04/08 14:45:08;;;;;;;9.70;1.80;;;;;;;7.07;57.05;101357.94;5030998;28;20074;-79
2021/04/08 14:47:35;;;;;;;10.70;2.38;;;;;;;7.31;56.58;101355.41;5018688;28;20100;-79
2021/04/08 14:50:02;;;;;;;9.10;1.55;;;;;;;6.89;54.26;101362.88;4994789;28;20411;-79
2021/04/08 14:52:29;;;;;;;10.45;1.63;;;;;;;6.96;52.82;101362.66;4979317;28;20054;-81
2021/04/08 14:54:56;;;;;;;8.93;1.48;;;;;;;7.26;50.92;101352.09;5021742;28;20061;-82
2021/04/08 14:57:23;;;;;;;7.13;1.40;;;;;;;7.20;50.50;101362.75;5018941;28;20058;-80
2021/04/08 14:59:50;;;;;;;14.13;2.17;;;;;;;7.09;50.13;101365.75;5003163;28;20057;-80
2021/04/08 15:02:16;;;;;;;8.10;1.48;;;;;;;7.13;50.33;101362.13;5000124;28;20138;-81
2021/04/08 15:04:43;;;;;;;7.07;1.52;;;;;;;7.65;48.89;101364.72;5025860;28;20074;-81
2021/04/08 15:07:10;;;;;;;8.45;1.42;;;;;;;7.55;48.38;101367.66;5020432;28;20054;-78
2021/04/08 15:09:37;;;;;;;6.97;1.38;;;;;;;7.67;47.92;101366.41;4980071;28;20077;-79
2021/04/08 15:12:05;;;;;;;5.22;1.40;;;;;;;7.24;48.99;101367.84;5005057;28;20049;-79
2021/04/08 15:14:32;;;;;;;7.25;1.50;;;;;;;7.13;49.24;101364.75;5025701;28;20058;-79
2021/04/08 15:16:58;;;;;;;8.95;1.52;;;;;;;6.86;48.96;101366.47;5021547;28;20057;-78
2021/04/08 15:19:28;;;;;;;8.05;2.00;;;;;;;6.88;48.71;101371.66;5012883;28;20058;-80
2021/04/08 15:21:55;;;;;;;5.75;1.23;;;;;;;7.06;48.19;101366.69;4998006;28;20114;-78
2021/04/08 15:24:23;;;;;;;4.53;1.25;;;;;;;6.72;48.16;101371.28;5024046;28;20061;-81
2021/04/08 15:26:49;;;;;;;11.73;1.30;;;;;;;6.88;48.50;101359.41;5004166;28;20038;-80
2021/04/08 15:29:16;;;;;;;7.30;1.42;;;;;;;6.89;48.31;101353.31;5012214;28;20278;-78
2021/04/08 15:31:43;;;;;;;2.22;0.80;;;;;;;6.71;48.41;101365.22;5021651;28;20057;-82
2021/04/08 15:34:10;;;;;;;8.43;1.35;;;;;;;6.66;48.88;101369.69;4993957;28;20290;-78
2021/04/08 15:36:37;;;;;;;4.50;1.00;;;;;;;6.47;50.16;101374.63;5018234;28;20050;-80
2021/04/08 15:39:04;;;;;;;3.22;1.10;;;;;;;6.21;50.78;101369.31;5021448;28;20102;-80
2021/04/08 15:41:30;;;;;;;5.78;1.38;;;;;;;5.89;51.77;101372.81;5026227;28;20072;-77
2021/04/08 15:44:00;;;;;;;4.22;1.25;;;;;;;5.99;51.92;101376.91;5000601;28;20050;-78
2021/04/08 15:46:27;;;;;;;7.43;1.40;;;;;;;6.09;52.54;101378.38;5015546;28;20061;-79
2021/04/08 15:48:54;;;;;;;4.82;1.30;;;;;;;6.17;52.33;101372.91;5016318;28;20061;-81
2021/04/08 15:51:21;;;;;;;16.00;1.67;;;;;;;6.44;52.27;101376.47;5012295;28;20050;-81
2021/04/08 15:53:47;;;;;;;10.68;1.20;;;;;;;6.57;51.81;101377.84;4999241;28;20084;-80
2021/04/08 15:56:14;;;;;;;4.40;1.20;;;;;;;6.33;50.59;101376.81;5001810;28;20156;-82
2021/04/08 15:58:41;;;;;;;2.45;0.93;;;;;;;6.49;50.24;101370.25;5018739;28;20072;-82
2021/04/08 16:01:08;;;;;;;5.82;1.23;;;;;;;6.67;49.37;101378.44;5002614;28;20092;-80
2021/04/08 16:03:38;;;;;;;5.90;1.10;;;;;;;6.60;47.97;101378.59;4990597;28;20301;-78
2021/04/08 16:06:09;;;;;;;4.63;0.90;;;;;;;6.71;48.19;101380.91;4978918;28;20101;-80
2021/04/08 16:08:36;;;;;;;3.53;0.98;;;;;;;6.66;48.14;101379.31;5009443;28;20054;-80
2021/04/08 16:11:06;;;;;;;5.75;1.20;;;;;;;6.74;49.05;101386.03;4999729;28;20041;-80
2021/04/08 16:13:32;;;;;;;7.18;1.08;;;;;;;7.00;48.26;101381.75;5003323;28;20054;-81
2021/04/08 16:16:04;;;;;;;3.17;1.10;;;;;;;6.91;48.46;101380.28;5019251;28;20034;-82
2021/04/08 16:18:31;;;;;;;7.57;1.73;;;;;;;6.71;49.06;101386.16;5003019;28;20068;-81
2021/04/08 16:20:57;;;;;;;12.85;1.90;;;;;;;6.37;50.07;101381.06;5014775;28;20076;-80
2021/04/08 16:23:24;;;;;;;6.63;1.10;;;;;;;6.42;50.62;101389.63;5000431;28;20062;-81
2021/04/08 16:25:51;;;;;;;4.18;0.95;;;;;;;6.30;50.91;101385.63;4995214;28;20529;-80
2021/04/08 16:28:23;;;;;;;2.75;0.93;;;;;;;6.29;51.25;101388.25;5011376;28;20055;-81
2021/04/08 16:30:54;;;;;;;5.22;1.42;;;;;;;6.49;50.22;101383.31;4991156;28;20113;-81
2021/04/08 16:33:21;;;;;;;5.70;1.13;;;;;;;6.36;49.92;101388.94;5002954;28;20050;-80
2021/04/08 16:35:49;;;;;;;3.58;1.00;;;;;;;6.20;50.62;101381.53;4992025;28;20141;-80
2021/04/08 16:38:16;;;;;;;4.18;1.10;;;;;;;6.24;50.69;101379.69;4974194;28;20106;-81
2021/04/08 16:40:44;;;;;;;6.70;1.17;;;;;;;6.16;51.10;101379.06;5007115;28;20046;-81
2021/04/08 16:43:11;;;;;;;9.00;2.20;;;;;;;6.14;51.60;101380.88;5017577;28;20046;-82
2021/04/08 16:45:37;;;;;;;4.45;1.00;;;;;;;6.05;51.96;101376.75;5023884;28;20112;-79
2021/04/08 16:48:04;;;;;;;9.85;1.73;;;;;;;5.96;51.48;101383.09;5020761;28;20076;-80
2021/04/08 16:50:31;;;;;;;10.00;1.42;;;;;;;6.05;51.87;101382.84;5019714;28;20101;-82
2021/04/08 16:52:59;;;;;;;7.40;1.30;;;;;;;6.05;52.23;101377.59;5015204;28;20415;-83
2021/04/08 16:55:27;;;;;;;7.38;1.23;;;;;;;5.79;52.68;101380.03;4989874;28;20072;-81
2021/04/08 16:57:56;;;;;;;6.22;1.17;;;;;;;5.79;52.90;101386.13;5001096;28;20054;-79
2021/04/08 17:00:23;;;;;;;8.25;1.30;;;;;;;5.92;53.13;101386.69;5000622;28;20041;-80
2021/04/08 17:02:50;;;;;;;8.20;1.80;;;;;;;5.74;53.45;101381.94;5010722;28;20148;-79
2021/04/08 17:05:17;;;;;;;3.17;1.30;;;;;;;5.48;54.42;101378.22;5015512;28;20053;-79
2021/04/08 17:07:44;;;;;;;5.18;1.35;;;;;;;5.53;54.87;101381.59;5017018;28;20092;-80
2021/04/08 17:10:12;;;;;;;7.32;2.05;;;;;;;5.57;55.23;101383.22;5002787;28;20058;-81
2021/04/08 17:12:39;;;;;;;6.35;1.25;;;;;;;5.57;54.84;101387.59;4996754;28;20118;-81
2021/04/08 17:15:07;;;;;;;4.57;1.30;;;;;;;5.51;55.32;101380.78;5011275;28;20205;-81
2021/04/08 17:17:34;;;;;;;10.95;2.20;;;;;;;5.49;55.07;101390.41;5015678;28;20149;-80
2021/04/08 17:20:01;;;;;;;5.25;1.83;;;;;;;5.44;55.73;101389.66;5017551;28;20054;-81
2021/04/08 17:22:28;;;;;;;5.80;1.55;;;;;;;5.24;56.58;101390.16;5001015;28;20110;-81
2021/04/08 17:24:55;;;;;;;3.17;1.30;;;;;;;4.96;57.39;101389.97;4997490;28;20166;-79
2021/04/08 17:27:23;;;;;;;9.30;1.73;;;;;;;4.92;57.55;101380.50;5017513;28;20042;-81
2021/04/08 17:29:50;;;;;;;5.93;1.80;;;;;;;4.97;57.49;101386.47;5016277;28;20081;-81
2021/04/08 17:32:16;;;;;;;11.52;1.40;;;;;;;5.01;56.79;101380.28;4994402;28;20114;-80
2021/04/08 17:34:43;;;;;;;7.13;1.50;;;;;;;4.91;57.23;101385.75;4996344;28;20084;-80
2021/04/08 17:37:10;;;;;;;7.28;1.38;;;;;;;4.91;56.91;101378.78;5005719;28;20053;-82
2021/04/08 17:39:37;;;;;;;8.05;1.48;;;;;;;4.93;57.01;101381.34;4999781;28;20030;-80
2021/04/08 17:42:05;;;;;;;4.20;1.60;;;;;;;4.88;56.66;101375.41;4988157;28;20057;-81
2021/04/08 17:44:33;;;;;;;7.00;1.58;;;;;;;4.81;57.05;101385.09;5004963;28;20114;-80
2021/04/08 17:47:01;;;;;;;6.82;1.80;;;;;;;4.71;57.37;101379.22;5018130;28;20053;-79
2021/04/08 17:49:28;;;;;;;3.60;1.42;;;;;;;4.64;57.53;101380.28;5005672;28;20141;-79
2021/04/08 17:51:55;;;;;;;7.88;1.65;;;;;;;4.63;56.79;101380.28;5018775;28;20080;-81
2021/04/08 17:54:22;;;;;;;4.57;1.30;;;;;;;4.70;57.48;101381.88;5012017;28;20096;-77
2021/04/08 17:56:49;;;;;;;6.22;1.92;;;;;;;4.71;56.93;101381.00;4994568;28;20045;-79
2021/04/08 17:59:18;;;;;;;9.73;2.03;;;;;;;4.73;56.83;101381.84;5010654;28;20073;-81
2021/04/08 18:01:45;;;;;;;5.38;1.40;;;;;;;4.57;57.06;101376.94;5003128;28;20451;-81
2021/04/08 18:04:13;;;;;;;8.50;1.55;;;;;;;4.79;58.48;101377.31;5015238;28;21211;-81
2021/04/08 18:06:39;;;;;;;4.60;1.50;;;;;;;4.66;58.15;101380.25;5001695;28;20046;-80
2021/04/08 18:09:06;;;;;;;4.72;2.08;;;;;;;4.70;57.48;101379.28;5023320;28;20085;-82
2021/04/08 18:11:39;;;;;;;5.22;1.70;;;;;;;4.67;57.64;101380.19;5017068;28;20038;-82
2021/04/08 18:14:07;;;;;;;8.57;2.08;;;;;;;4.71;57.84;101381.00;4986994;28;20069;-82
2021/04/08 18:16:34;;;;;;;4.90;1.77;;;;;;;4.70;57.60;101381.88;5022062;28;20113;-78
2021/04/08 18:19:04;;;;;;;4.85;1.48;;;;;;;4.70;60.60;101382.75;5026057;28;20053;-79
2021/04/08 18:21:31;;;;;;;6.70;1.83;;;;;;;4.90;57.93;101378.81;5014920;28;20050;-80
2021/04/08 18:23:59;;;;;;;4.93;1.63;;;;;;;5.04;58.07;101382.84;5019186;28;20080;-78
2021/04/08 18:26:26;;;;;;;6.28;1.48;;;;;;;5.01;56.73;101379.44;5024112;28;20049;-78
2021/04/08 18:28:56;;;;;;;6.30;1.40;;;;;;;4.96;57.02;101386.50;5021275;28;20133;-80
2021/04/08 18:31:24;;;;;;;6.82;2.20;;;;;;;5.00;56.43;101375.97;4996351;28;20077;-79
2021/04/08 18:33:51;;;;;;;5.20;1.65;;;;;;;4.98;56.48;101372.53;5015990;28;20133;-81
2021/04/08 18:36:18;;;;;;;5.75;1.77;;;;;;;4.88;56.55;101391.03;5007409;28;20116;-82
2021/04/08 18:38:45;;;;;;;4.32;1.33;;;;;;;4.76;57.01;101381.75;4997148;28;20056;-80
2021/04/08 18:41:12;;;;;;;8.30;1.80;;;;;;;4.78;57.05;101387.78;4997561;28;20427;-82
2021/04/08 18:43:39;;;;;;;10.30;1.90;;;;;;;4.78;56.84;101385.19;5016121;28;20046;-82
2021/04/08 18:46:06;;;;;;;9.40;1.95;;;;;;;4.64;57.40;101384.63;5002901;28;20068;-80
2021/04/08 18:48:32;;;;;;;6.47;1.60;;;;;;;4.67;56.84;101388.03;5022557;28;20049;-81
2021/04/08 18:51:00;;;;;;;3.80;1.58;;;;;;;4.64;56.88;101387.22;5018415;28;20057;-78
2021/04/08 18:53:26;;;;;;;7.43;2.13;;;;;;;4.70;56.34;101395.78;5019782;28;20050;-82
2021/04/08 18:55:54;;;;;;;8.25;1.88;;;;;;;4.66;56.95;101391.53;4974348;28;20108;-82
2021/04/08 18:58:21;;;;;;;5.05;1.70;;;;;;;4.79;57.30;101394.72;5015214;28;20058;-82
2021/04/08 19:00:49;;;;;;;4.88;1.80;;;;;;;4.74;57.36;101389.59;4982393;28;20245;-80
2021/04/08 19:03:16;;;;;;;5.68;1.65;;;;;;;4.63;58.03;101388.97;4999482;28;20646;-82
2021/04/08 19:05:43;;;;;;;7.63;1.95;;;;;;;4.61;57.59;101397.75;4997441;28;20133;-82
2021/04/08 19:08:10;;;;;;;9.93;2.10;;;;;;;4.65;57.92;101397.63;5021713;28;20057;-82
2021/04/08 19:10:38;;;;;;;4.72;1.52;;;;;;;4.75;57.72;101390.47;4998488;28;20420;-83
2021/04/08 19:13:05;;;;;;;7.60;2.67;;;;;;;4.71;57.78;101392.28;5015926;28;20046;-81
2021/04/08 19:15:33;;;;;;;5.38;1.98;;;;;;;4.71;57.68;101400.09;4994985;28;20050;-81
2021/04/08 19:18:00;;;;;;;7.30;2.20;;;;;;;4.70;57.77;101394.94;5017733;28;20041;-82
2021/04/08 19:20:28;;;;;;;14.43;2.38;;;;;;;4.73;57.53;101398.34;5013700;28;20126;-82
2021/04/08 19:22:54;;;;;;;4.53;1.70;;;;;;;4.77;57.37;101407.81;4997907;28;20077;-81
2021/04/08 19:25:21;;;;;;;5.45;2.03;;;;;;;4.74;57.16;101405.25;4982832;28;20058;-81
2021/04/08 19:27:48;;;;;;;6.80;2.15;;;;;;;4.68;57.58;101401.91;5003186;28;20073;-80
2021/04/08 19:30:18;;;;;;;6.05;1.67;;;;;;;4.60;58.16;101402.09;4978157;28;20051;-81
2021/04/08 19:32:45;;;;;;;7.93;2.78;;;;;;;4.58;58.29;101399.50;4996211;28;20073;-80
2021/04/08 19:35:13;;;;;;;4.03;1.92;;;;;;;4.66;58.45;101403.72;5004463;28;20096;-79
2021/04/08 19:37:43;;;;;;;5.82;1.67;;;;;;;4.57;58.30;101391.72;5008140;28;20034;-80
2021/04/08 19:40:11;;;;;;;11.73;1.90;;;;;;;4.86;58.07;101396.28;4996373;28;20089;-79
2021/04/08 19:42:38;;;;;;;9.10;2.25;;;;;;;4.80;58.18;101394.69;5028199;28;20061;-80
2021/04/08 19:45:06;;;;;;;12.77;2.13;;;;;;;4.76;58.64;101400.84;4997373;28;20407;-80
2021/04/08 19:47:33;;;;;;;8.05;2.20;;;;;;;4.67;57.47;101395.84;4994572;28;20053;-81
2021/04/08 19:50:04;;;;;;;8.15;1.98;;;;;;;4.70;58.02;101402.75;5000003;28;20080;-81
2021/04/08 19:52:31;;;;;;;5.28;1.75;;;;;;;4.63;58.62;101391.59;4983557;28;20128;-80
2021/04/08 19:54:57;;;;;;;5.15;2.08;;;;;;;4.60;58.09;101393.44;5013983;28;20053;-81
2021/04/08 19:57:24;;;;;;;4.97;1.58;;;;;;;4.66;58.11;101395.88;5011158;28;20062;-80
2021/04/08 19:59:51;;;;;;;10.80;2.80;;;;;;;4.58;58.24;101391.69;5006628;28;20050;-80
2021/04/08 20:02:18;;;;;;;6.90;2.03;;;;;;;4.57;58.53;101389.13;4982230;28;20041;-83
2021/04/08 20:04:45;;;;;;;11.10;2.50;;;;;;;4.58;58.37;101386.47;4999772;28;20041;-80
2021/04/08 20:07:12;;;;;;;9.27;2.40;;;;;;;4.62;58.78;101383.81;5013147;28;20387;-82
2021/04/08 20:09:39;;;;;;;10.32;2.80;;;;;;;4.54;58.56;101387.41;4991860;28;20039;-82
2021/04/08 20:12:07;;;;;;;6.32;2.33;;;;;;;4.63;58.49;101388.13;5000077;28;20124;-81
2021/04/08 20:14:34;;;;;;;5.95;2.30;;;;;;;4.72;57.90;101385.31;5017448;28;20057;-79
2021/04/08 20:17:02;;;;;;;7.80;2.05;;;;;;;4.68;58.41;101383.66;5008607;28;20526;-81
2021/04/08 20:19:29;;;;;;;5.72;2.10;;;;;;;4.50;59.00;101383.19;4991812;28;20050;-80
2021/04/08 20:21:56;;;;;;;9.65;2.40;;;;;;;4.53;58.64;101383.09;4996135;28;20050;-81
2021/04/08 20:24:23;;;;;;;6.35;2.35;;;;;;;4.64;57.80;101382.88;4983399;28;20050;-82
2021/04/08 20:26:50;;;;;;;5.22;1.88;;;;;;;4.48;58.75;101381.50;4994387;28;20081;-79
2021/04/08 20:29:16;;;;;;;7.30;2.15;;;;;;;4.53;58.99;101371.81;5014180;28;20054;-81
2021/04/08 20:31:46;;;;;;;5.70;1.95;;;;;;;4.42;58.92;101371.22;4998321;28;20061;-81
2021/04/08 20:34:17;;;;;;;11.23;2.90;;;;;;;4.41;58.62;101374.69;5013084;28;20047;-77
2021/04/08 20:36:47;;;;;;;7.72;2.28;;;;;;;4.41;58.67;101370.31;5010536;28;20054;-79
2021/04/08 20:39:13;;;;;;;9.02;2.13;;;;;;;4.28;60.01;101368.91;4995541;28;20494;-80
2021/04/08 20:41:40;;;;;;;6.43;2.33;;;;;;;4.36;59.22;101361.75;4990855;28;20254;-82
2021/04/08 20:44:07;;;;;;;5.10;2.00;;;;;;;4.35;59.07;101367.88;4998612;28;20057;-79
2021/04/08 20:46:34;;;;;;;8.25;2.00;;;;;;;4.36;59.20;101364.34;5004491;28;20062;-80
2021/04/08 20:49:01;;;;;;;9.95;3.28;;;;;;;4.25;59.85;101363.75;5016270;28;20149;-79
2021/04/08 20:51:27;;;;;;;4.47;2.15;;;;;;;4.26;60.16;101361.09;4993188;28;20054;-80
2021/04/08 20:53:54;;;;;;;9.27;2.45;;;;;;;4.27;59.37;101354.13;5000671;28;20077;-80
2021/04/08 20:56:21;;;;;;;6.97;2.20;;;;;;;4.23;59.69;101352.47;5000489;28;20107;-81
2021/04/08 20:58:48;;;;;;;7.10;2.03;;;;;;;4.30;60.23;101359.28;5018833;28;20092;-82
2021/04/08 21:01:15;;;;;;;5.63;2.40;;;;;;;4.20;59.65;101357.78;4995828;28;20263;-80
2021/04/08 21:03:45;;;;;;;5.13;1.77;;;;;;;4.20;59.49;101352.56;4994240;28;20503;-80
2021/04/08 21:06:12;;;;;;;6.00;2.28;;;;;;;4.25;59.38;101348.97;4976017;28;20046;-79
2021/04/08 21:08:39;;;;;;;7.50;2.53;;;;;;;4.13;59.88;101350.97;4999973;28;20057;-79
2021/04/08 21:11:06;;;;;;;8.02;2.08;;;;;;;4.23;59.24;101348.16;4995910;28;20066;-81
2021/04/08 21:13:33;;;;;;;8.05;2.78;;;;;;;4.19;59.21;101343.88;5020675;28;20053;-80
2021/04/08 21:16:00;;;;;;;9.35;2.53;;;;;;;4.02;60.01;101343.38;5018102;28;20551;-82
2021/04/08 21:18:27;;;;;;;8.13;2.45;;;;;;;3.94;60.47;101335.72;4995745;28;20078;-79
2021/04/08 21:20:53;;;;;;;5.15;2.33;;;;;;;4.00;60.25;101339.94;5028471;28;20045;-79
2021/04/08 21:23:21;;;;;;;6.72;2.42;;;;;;;4.01;61.43;101329.50;5031496;28;20038;-77
2021/04/08 21:25:48;;;;;;;9.18;2.60;;;;;;;4.12;61.57;101333.63;5033806;28;20049;-78
2021/04/08 21:28:16;;;;;;;6.60;2.53;;;;;;;4.10;60.63;101338.88;5030178;28;20061;-78
2021/04/08 21:30:45;;;;;;;8.43;2.70;;;;;;;4.18;60.53;101330.88;5012978;28;20054;-79
2021/04/08 21:33:14;;;;;;;13.05;3.05;;;;;;;3.98;60.97;101331.31;5003381;28;20072;-80
2021/04/08 21:35:42;;;;;;;3.90;2.13;;;;;;;4.03;60.68;101330.31;4976218;28;20060;-77
2021/04/08 21:38:10;;;;;;;6.85;2.50;;;;;;;3.89;61.34;101331.47;5024170;28;20100;-78
2021/04/08 21:40:38;;;;;;;7.13;2.33;;;;;;;3.91;61.14;101321.88;5000873;28;20105;-78
2021/04/08 21:43:05;;;;;;;6.82;2.38;;;;;;;4.10;60.84;101322.34;5028633;28;20054;-80
2021/04/08 21:45:32;;;;;;;6.50;1.92;;;;;;;4.09;60.63;101316.28;4988714;28;20080;-82
2021/04/08 21:47:59;;;;;;;4.80;2.03;;;;;;;3.95;60.59;101311.38;5024829;28;20073;-80
2021/04/08 21:50:26;;;;;;;4.13;2.10;;;;;;;3.93;60.04;101313.16;5007743;28;20057;-80
2021/04/08 21:52:53;;;;;;;6.13;2.10;;;;;;;3.97;60.63;101311.34;5003540;28;20035;-77
2021/04/08 21:55:20;;;;;;;6.57;2.50;;;;;;;3.83;60.67;101310.75;5020792;28;20050;-80
2021/04/08 21:57:48;;;;;;;5.90;1.90;;;;;;;3.71;61.56;101312.72;5017593;28;20092;-79
2021/04/08 22:00:27;;;;;;;6.82;2.13;;;;;;;3.70;61.09;101315.38;5024144;28;20050;-78
2021/04/08 22:02:55;;;;;;;5.43;1.88;;;;;;;3.90;61.75;101312.34;5014749;28;20045;-77
2021/04/08 22:05:22;;;;;;;6.13;2.80;;;;;;;3.96;61.21;101313.09;5010322;28;20034;-78
2021/04/08 22:07:49;;;;;;;8.75;2.20;;;;;;;3.97;60.74;101316.56;5008137;28;20034;-78
2021/04/08 22:10:19;;;;;;;10.50;2.38;;;;;;;3.90;60.23;101308.00;5028181;28;20026;-77
2021/04/08 22:12:46;;;;;;;6.45;2.30;;;;;;;3.90;61.01;101310.59;5018254;28;20042;-79
2021/04/08 22:15:17;;;;;;;5.80;2.65;;;;;;;3.81;61.82;101310.78;5000134;28;20055;-78
2021/04/08 22:17:45;;;;;;;5.00;2.33;;;;;;;3.88;61.07;101311.53;5022737;28;20054;-80
2021/04/08 22:20:15;;;;;;;7.22;2.35;;;;;;;3.91;61.38;101301.91;5030042;28;20046;-80
2021/04/08 22:22:50;;;;;;;8.10;2.00;;;;;;;3.75;61.28;101310.94;5018860;28;20070;-77
2021/04/08 22:25:21;;;;;;;5.40;2.33;;;;;;;3.50;61.86;101306.16;5025475;28;20050;-80
2021/04/08 22:27:48;;;;;;;8.13;2.40;;;;;;;3.44;62.34;101306.31;5015316;28;20034;-80
2021/04/08 22:30:19;;;;;;;8.60;3.03;;;;;;;3.31;62.96;101294.41;5007788;28;20024;-78
2021/04/08 22:32:46;;;;;;;7.47;2.70;;;;;;;3.46;63.08;101298.44;5007179;28;20080;-79
2021/04/08 22:35:14;;;;;;;7.55;2.55;;;;;;;3.34;63.16;101296.09;5022041;28;20062;-80
2021/04/08 22:37:41;;;;;;;6.18;2.55;;;;;;;3.22;63.11;101294.56;5013660;28;20108;-80
2021/04/08 22:40:12;;;;;;;7.63;2.33;;;;;;;3.30;65.93;101293.53;5009457;28;20037;-80
2021/04/08 22:42:39;;;;;;;7.43;2.30;;;;;;;3.11;64.13;101284.34;4999997;28;20049;-79
2021/04/08 22:45:13;;;;;;;5.65;2.72;;;;;;;2.97;64.80;101291.50;5015653;28;20049;-80
2021/04/08 22:47:39;;;;;;;10.10;2.88;;;;;;;3.03;64.99;101286.22;5007305;28;20054;-78
2021/04/08 22:50:07;;;;;;;6.55;2.58;;;;;;;2.95;65.03;101288.09;5023585;28;20065;-80
2021/04/08 22:52:34;;;;;;;5.25;2.97;;;;;;;2.97;65.08;101283.72;5003663;28;20069;-80
2021/04/08 22:55:01;;;;;;;5.75;2.63;;;;;;;2.97;65.54;101288.91;5004918;28;20041;-80
2021/04/08 22:57:28;;;;;;;10.30;2.88;;;;;;;3.32;65.67;101288.28;5006569;28;20048;-79
2021/04/08 22:59:54;;;;;;;5.10;2.55;;;;;;;3.13;64.78;101290.38;5019113;28;20096;-80
2021/04/08 23:02:22;;;;;;;5.25;2.70;;;;;;;3.01;65.10;101282.78;5019070;28;20038;-78
2021/04/08 23:04:49;;;;;;;6.43;2.72;;;;;;;2.97;65.23;101288.91;5019482;28;20070;-80
2021/04/08 23:07:17;;;;;;;6.25;2.90;;;;;;;2.87;65.36;101279.56;5016605;28;20049;-78
2021/04/08 23:09:44;;;;;;;6.68;2.95;;;;;;;3.05;65.38;101279.25;5010016;28;20060;-79